Time;durP1;ratioP1;P1;durP2;ratioP2;P2;SDS_P1;SDS_P2;PMS_P1;PMS_P2;Temp;Humidity;BMP_temperature;BMP_pressure;BME280_temperature;BME280_humidity;BME280_pressure;Samples;Min_cycle;Max_cycle;Signal;HPM_P1;HPM_P2
2022/04/21 05:56:53;;;;;;;3.15;2.58;;;;;;;;;;5000432;28;20639;-70
2022/04/21 05:59:19;;;;;;;1.90;1.80;;;;;;;;;;5012460;28;20057;-69
2022/04/21 06:01:45;;;;;;;3.05;2.75;;;;;;;;;;5012901;28;20536;-70
2022/04/21 06:04:12;;;;;;;3.83;2.70;;;;;;;;;;5012802;28;20037;-71
2022/04/21 06:06:39;;;;;;;2.45;2.25;;;;;;;;;;4995158;28;20045;-70
2022/04/21 06:09:04;;;;;;;2.50;2.40;;;;;;;;;;5012632;28;20046;-70
2022/04/21 06:11:33;;;;;;;2.80;2.60;;;;;;;;;;5011165;28;20048;-70
2022/04/21 06:13:59;;;;;;;2.70;2.55;;;;;;;;;;5011207;28;20069;-70
2022/04/21 06:40:19;;;;;;;3.20;3.00;;;;;;;;;;5007184;28;20041;-68
2022/04/21 06:42:45;;;;;;;3.30;3.00;;;;;;;;;;5005813;28;20621;-67
2022/04/21 06:48:09;;;;;;;3.15;2.95;;;;;;;;;;5011109;28;20103;-69
2022/04/21 06:50:35;;;;;;;3.47;3.10;;;;;;;;;;4989936;28;20495;-69
2022/04/21 06:53:01;;;;;;;4.35;2.80;;;;;;;;;;4991570;28;20529;-68
2022/04/21 06:55:28;;;;;;;2.92;2.72;;;;;;;;;;4990189;28;20088;-69
2022/04/21 06:57:54;;;;;;;3.00;2.80;;;;;;;;;;5005686;28;20062;-69
2022/04/21 07:00:21;;;;;;;2.90;2.70;;;;;;;;;;5010508;28;20048;-70
2022/04/21 07:02:46;;;;;;;3.47;3.25;;;;;;;;;;5009137;28;20161;-69
2022/04/21 07:05:13;;;;;;;2.78;2.45;;;;;;;;;;5010863;28;20476;-68
2022/04/21 07:07:39;;;;;;;3.50;3.20;;;;;;;;;;5010905;28;20060;-69
2022/04/21 07:10:06;;;;;;;3.22;3.00;;;;;;;;;;5010628;28;20151;-69
2022/04/21 07:12:32;;;;;;;2.97;2.78;;;;;;;;;;5010744;28;20093;-69
2022/04/21 07:15:02;;;;;;;3.38;3.08;;;;;;;;;;5009213;28;20506;-69
2022/04/21 07:17:29;;;;;;;3.08;2.80;;;;;;;;;;4993255;28;20033;-69
2022/04/21 07:19:55;;;;;;;3.03;2.83;;;;;;;;;;5010597;28;20054;-69
2022/04/21 07:22:21;;;;;;;2.83;2.63;;;;;;;;;;5001964;28;20144;-69
2022/04/21 07:24:47;;;;;;;3.38;3.17;;;;;;;;;;5027930;28;20129;-68
2022/04/21 07:27:13;;;;;;;2.80;2.60;;;;;;;;;;5030242;28;20489;-68
2022/04/21 07:29:39;;;;;;;2.65;2.53;;;;;;;;;;5029995;28;20041;-68
2022/04/21 07:32:05;;;;;;;2.78;2.58;;;;;;;;;;5028949;28;20069;-69
2022/04/21 07:34:31;;;;;;;3.35;3.05;;;;;;;;;;5030002;28;20073;-68
2022/04/21 07:36:57;;;;;;;3.47;3.28;;;;;;;;;;5009043;28;20128;-68
2022/04/21 07:39:23;;;;;;;2.85;2.65;;;;;;;;;;5003700;28;20478;-69
2022/04/21 07:41:51;;;;;;;3.97;3.67;;;;;;;;;;5010156;28;20052;-69
2022/04/21 07:44:16;;;;;;;3.00;2.78;;;;;;;;;;5009735;28;20041;-69
2022/04/21 07:46:43;;;;;;;3.17;2.80;;;;;;;;;;5009659;28;20046;-69
2022/04/21 07:53:12;;;;;;;3.03;2.83;;;;;;;;;;5010334;28;20049;-69
2022/04/21 07:54:38;;;;;;;4.28;3.25;;;;;;;;;;5022401;28;20055;-70
2022/04/21 07:57:04;;;;;;;2.13;2.03;;;;;;;;;;5029811;28;20425;-68
2022/04/21 07:59:32;;;;;;;3.92;3.03;;;;;;;;;;5029291;28;20604;-68
2022/04/21 08:01:58;;;;;;;2.58;2.35;;;;;;;;;;4979248;28;20045;-68
2022/04/21 08:04:24;;;;;;;3.17;2.97;;;;;;;;;;5028747;28;20477;-67
2022/04/21 08:06:50;;;;;;;2.60;2.40;;;;;;;;;;5017365;28;20045;-68
2022/04/21 08:09:17;;;;;;;3.45;2.50;;;;;;;;;;5003090;28;20426;-68
2022/04/21 08:11:42;;;;;;;2.80;2.60;;;;;;;;;;5003018;28;20108;-70
2022/04/21 08:14:09;;;;;;;2.70;2.50;;;;;;;;;;5009755;28;20050;-68
2022/04/21 08:16:35;;;;;;;2.20;2.10;;;;;;;;;;5010024;28;20129;-68
2022/04/21 08:19:01;;;;;;;3.55;3.25;;;;;;;;;;5009959;28;20054;-68
2022/04/21 08:21:27;;;;;;;3.80;3.22;;;;;;;;;;5009836;28;20140;-70
2022/04/21 08:32:33;;;;;;;3.70;3.50;;;;;;;;;;5010291;28;20116;-67
2022/04/21 08:34:52;;;;;;;3.20;3.00;;;;;;;;;;4992226;28;20113;-68
2022/04/21 08:37:18;;;;;;;3.40;3.08;;;;;;;;;;5010016;28;20073;-68
2022/04/21 08:39:45;;;;;;;3.58;3.30;;;;;;;;;;5011047;28;20046;-68
2022/04/21 08:42:11;;;;;;;4.00;3.70;;;;;;;;;;4992391;28;20519;-68
2022/04/21 08:44:39;;;;;;;3.20;2.95;;;;;;;;;;5009082;28;20553;-69
2022/04/21 08:47:05;;;;;;;3.80;3.50;;;;;;;;;;5009469;28;20050;-68
2022/04/21 08:49:32;;;;;;;3.20;3.00;;;;;;;;;;5001784;28;20489;-68
2022/04/21 08:51:58;;;;;;;3.90;3.05;;;;;;;;;;4994005;28;20046;-68
2022/04/21 08:54:24;;;;;;;3.60;3.28;;;;;;;;;;4971960;28;20043;-69
2022/04/21 08:56:50;;;;;;;3.42;3.08;;;;;;;;;;4989740;28;20137;-69
2022/04/21 08:59:16;;;;;;;6.28;3.72;;;;;;;;;;4971773;28;20422;-69
2022/04/21 09:01:42;;;;;;;4.28;4.00;;;;;;;;;;4989412;28;20069;-68
2022/04/21 09:04:08;;;;;;;2.75;2.55;;;;;;;;;;4989285;28;20515;-69
2022/04/21 09:06:38;;;;;;;4.60;3.72;;;;;;;;;;4989254;28;20049;-69
2022/04/21 09:09:20;;;;;;;3.97;3.67;;;;;;;;;;5005008;28;20052;-71
2022/04/21 09:11:45;;;;;;;4.18;3.83;;;;;;;;;;5001484;28;20034;-72
2022/04/21 09:14:15;;;;;;;3.97;3.55;;;;;;;;;;4989128;28;20061;-69
2022/04/21 09:16:40;;;;;;;3.90;3.55;;;;;;;;;;5008112;28;20053;-69
2022/04/21 09:19:06;;;;;;;6.22;4.20;;;;;;;;;;5011222;28;20042;-68
2022/04/21 09:21:36;;;;;;;4.10;3.80;;;;;;;;;;4995188;28;20442;-71
2022/04/21 09:24:17;;;;;;;4.07;3.63;;;;;;;;;;5012588;28;20049;-72
2022/04/21 09:26:44;;;;;;;3.80;3.50;;;;;;;;;;4994022;28;20041;-72
2022/04/21 09:29:10;;;;;;;4.43;4.13;;;;;;;;;;5012344;28;20046;-69
2022/04/21 09:31:38;;;;;;;4.57;4.18;;;;;;;;;;4995087;28;20053;-71
2022/04/21 09:34:04;;;;;;;4.35;3.67;;;;;;;;;;4990486;28;20051;-72
2022/04/21 09:36:30;;;;;;;4.20;3.80;;;;;;;;;;5011136;28;20113;-70
2022/04/21 09:38:59;;;;;;;3.75;3.47;;;;;;;;;;4994839;28;20124;-70
2022/04/21 09:41:27;;;;;;;3.97;3.67;;;;;;;;;;5010603;28;20038;-72
2022/04/21 09:43:55;;;;;;;5.03;4.57;;;;;;;;;;5011841;28;20054;-70
2022/04/21 09:46:22;;;;;;;3.40;3.15;;;;;;;;;;5010085;28;20069;-71
2022/04/21 09:48:51;;;;;;;3.42;3.22;;;;;;;;;;5010067;28;20054;-72
2022/04/21 09:51:18;;;;;;;4.57;4.28;;;;;;;;;;4993954;28;20121;-71
2022/04/21 09:53:47;;;;;;;3.47;3.22;;;;;;;;;;5005950;28;20403;-71
2022/04/21 09:56:12;;;;;;;2.75;2.55;;;;;;;;;;5001945;28;20073;-72
2022/04/21 09:58:38;;;;;;;2.90;2.78;;;;;;;;;;5007719;28;20112;-71
2022/04/21 10:01:04;;;;;;;3.22;3.00;;;;;;;;;;4977021;28;20034;-71
2022/04/21 10:03:33;;;;;;;3.92;3.72;;;;;;;;;;5009750;28;20054;-72
2022/04/21 10:05:59;;;;;;;3.58;3.28;;;;;;;;;;4992512;28;20038;-71
2022/04/21 10:08:25;;;;;;;2.92;2.72;;;;;;;;;;5011589;28;20056;-71
2022/04/21 10:10:52;;;;;;;3.67;3.38;;;;;;;;;;5011795;28;20045;-71
2022/04/21 10:13:18;;;;;;;3.30;3.08;;;;;;;;;;5011909;28;20077;-74
2022/04/21 10:15:44;;;;;;;4.30;4.00;;;;;;;;;;4994113;28;20439;-71
2022/04/21 10:18:15;;;;;;;4.00;3.60;;;;;;;;;;5011739;28;20426;-72
2022/04/21 10:20:41;;;;;;;3.30;3.10;;;;;;;;;;4994414;28;20084;-71
2022/04/21 10:23:11;;;;;;;3.72;3.42;;;;;;;;;;4994175;28;20558;-72
2022/04/21 10:25:37;;;;;;;2.75;2.60;;;;;;;;;;5010632;28;20092;-72
2022/04/21 10:28:42;;;;;;;3.75;3.45;;;;;;;;;;5003301;28;20045;-72
2022/04/21 10:31:29;;;;;;;3.00;2.80;;;;;;;;;;4968832;28;20566;-72
2022/04/21 10:33:56;;;;;;;3.60;3.40;;;;;;;;;;4970166;28;20412;-72
2022/04/21 10:36:34;;;;;;;4.07;3.78;;;;;;;;;;4983165;28;20839;-72
2022/04/21 10:39:10;;;;;;;4.00;3.72;;;;;;;;;;5010089;28;20187;-72
2022/04/21 10:41:36;;;;;;;4.32;3.95;;;;;;;;;;5010020;28;20065;-72
2022/04/21 10:44:02;;;;;;;3.22;3.03;;;;;;;;;;5011335;28;20141;-72
2022/04/21 10:46:32;;;;;;;3.97;3.67;;;;;;;;;;5011261;28;20062;-72
2022/04/21 10:48:58;;;;;;;2.80;2.60;;;;;;;;;;5010788;28;20100;-72
2022/04/21 10:57:12;;;;;;;3.00;2.80;;;;;;;;;;5008921;28;20410;-71
2022/04/21 10:57:46;;;;;;;3.20;3.00;;;;;;;;;;5010851;28;20096;-71
2022/04/21 11:00:24;;;;;;;2.92;2.72;;;;;;;;;;5010980;28;20133;-71
2022/04/21 11:02:59;;;;;;;3.47;2.92;;;;;;;;;;5010620;28;20064;-72
2022/04/21 11:05:27;;;;;;;2.55;2.35;;;;;;;;;;5010505;28;20046;-73
2022/04/21 11:07:57;;;;;;;3.00;2.80;;;;;;;;;;4992242;28;20048;-70
2022/04/21 11:10:26;;;;;;;3.50;3.30;;;;;;;;;;5010148;28;20442;-70
2022/04/21 11:12:53;;;;;;;3.00;2.80;;;;;;;;;;5011335;28;20065;-70
2022/04/21 11:15:49;;;;;;;3.05;2.85;;;;;;;;;;4992976;28;20108;-72
2022/04/21 11:18:18;;;;;;;3.30;3.00;;;;;;;;;;5009182;28;20324;-70
2022/04/21 11:20:46;;;;;;;3.15;2.95;;;;;;;;;;5010639;28;20137;-70
2022/04/21 11:23:24;;;;;;;3.22;2.92;;;;;;;;;;4993002;28;20050;-71
2022/04/21 11:25:51;;;;;;;4.05;3.65;;;;;;;;;;5010630;28;20196;-72
2022/04/21 11:28:23;;;;;;;2.88;2.67;;;;;;;;;;5010682;28;20669;-73
2022/04/21 11:30:49;;;;;;;3.97;3.10;;;;;;;;;;5009194;28;20038;-72
2022/04/21 11:33:14;;;;;;;2.47;2.35;;;;;;;;;;5009720;28;20053;-71
2022/04/21 11:35:42;;;;;;;3.78;3.53;;;;;;;;;;5029358;28;20533;-72
2022/04/21 11:38:07;;;;;;;4.43;4.13;;;;;;;;;;5018536;28;20042;-70
2022/04/21 11:40:35;;;;;;;3.33;3.13;;;;;;;;;;5009836;28;20547;-71
2022/04/21 11:43:02;;;;;;;4.20;3.90;;;;;;;;;;5009760;28;20073;-71
2022/04/21 11:45:29;;;;;;;3.10;2.90;;;;;;;;;;5010127;28;20049;-70
2022/04/21 11:47:55;;;;;;;3.88;3.58;;;;;;;;;;5010221;28;20042;-71
2022/04/21 11:50:21;;;;;;;4.18;3.80;;;;;;;;;;5010414;28;20100;-72
2022/04/21 11:52:52;;;;;;;5.63;4.85;;;;;;;;;;5010067;28;20132;-70
2022/04/21 11:55:22;;;;;;;4.13;3.83;;;;;;;;;;5010052;28;20045;-70
2022/04/21 11:57:48;;;;;;;5.57;3.40;;;;;;;;;;5009430;28;20049;-70
2022/04/21 12:06:27;;;;;;;4.97;4.57;;;;;;;;;;5009155;28;20525;-70
2022/04/21 12:06:28;;;;;;;3.70;3.40;;;;;;;;;;4947620;29;20214;-69
2022/04/21 12:08:54;;;;;;;3.33;3.13;;;;;;;;;;4949174;29;20160;-69
2022/04/21 12:11:20;;;;;;;8.35;3.80;;;;;;;;;;4968387;28;20086;-69
2022/04/21 12:13:47;;;;;;;3.45;3.25;;;;;;;;;;5007618;28;20037;-69
2022/04/21 12:16:33;;;;;;;2.95;2.63;;;;;;;;;;5009559;28;20029;-69
2022/04/21 12:19:08;;;;;;;4.47;4.18;;;;;;;;;;5009706;28;20045;-69
2022/04/21 12:21:37;;;;;;;4.72;4.43;;;;;;;;;;5003092;28;20112;-68
2022/04/21 12:24:12;;;;;;;3.65;3.35;;;;;;;;;;5006962;28;20042;-68
2022/04/21 12:26:38;;;;;;;4.25;3.95;;;;;;;;;;5007406;28;20176;-68
2022/04/21 12:29:07;;;;;;;4.30;3.90;;;;;;;;;;5007809;28;20129;-68
2022/04/21 12:31:43;;;;;;;3.30;3.10;;;;;;;;;;5009032;28;20489;-68
2022/04/21 12:34:11;;;;;;;3.80;3.50;;;;;;;;;;5008170;28;20131;-68
2022/04/21 12:36:36;;;;;;;3.05;2.83;;;;;;;;;;5007942;28;20470;-68
2022/04/21 12:39:02;;;;;;;3.30;3.10;;;;;;;;;;5007803;28;20100;-68
2022/04/21 12:41:29;;;;;;;3.80;3.50;;;;;;;;;;5008515;28;20045;-69
2022/04/21 12:43:55;;;;;;;4.32;4.03;;;;;;;;;;4991377;28;20620;-69
2022/04/21 12:46:21;;;;;;;4.90;3.80;;;;;;;;;;5007596;28;20038;-69
2022/04/21 12:48:48;;;;;;;3.90;3.60;;;;;;;;;;4988552;28;20042;-68
2022/04/21 12:51:19;;;;;;;5.53;4.00;;;;;;;;;;5007486;28;20044;-69
2022/04/21 12:53:45;;;;;;;5.18;4.35;;;;;;;;;;5005724;28;20041;-68
2022/04/21 12:56:11;;;;;;;4.70;4.18;;;;;;;;;;5004314;28;20064;-68
2022/04/21 12:58:37;;;;;;;3.38;3.08;;;;;;;;;;5003763;28;20128;-69
2022/04/21 13:01:05;;;;;;;3.63;3.40;;;;;;;;;;5006489;28;20041;-68
2022/04/21 13:03:31;;;;;;;3.05;2.75;;;;;;;;;;5007342;28;20050;-68
2022/04/21 13:05:58;;;;;;;3.70;3.40;;;;;;;;;;5007022;28;20049;-68
2022/04/21 13:08:24;;;;;;;4.28;3.97;;;;;;;;;;5007552;28;20497;-68
2022/04/21 13:10:51;;;;;;;3.40;3.17;;;;;;;;;;5007521;28;20026;-68
2022/04/21 13:13:17;;;;;;;3.83;3.58;;;;;;;;;;4988930;28;20490;-68
2022/04/21 13:15:43;;;;;;;4.30;4.00;;;;;;;;;;5007465;28;20049;-68
2022/04/21 13:18:09;;;;;;;4.22;3.85;;;;;;;;;;5006691;28;20041;-68
2022/04/21 13:23:20;;;;;;;4.03;3.70;;;;;;;;;;5003851;28;20052;-70
2022/04/21 13:25:46;;;;;;;3.45;3.20;;;;;;;;;;5005149;28;20046;-69
2022/04/21 13:28:11;;;;;;;4.18;3.97;;;;;;;;;;5008303;28;20537;-70
2022/04/21 13:30:37;;;;;;;3.90;3.60;;;;;;;;;;5006634;28;20129;-70
2022/04/21 13:33:22;;;;;;;4.47;4.07;;;;;;;;;;5006814;28;20046;-71
2022/04/21 13:35:51;;;;;;;4.63;4.22;;;;;;;;;;5007241;28;20057;-70
2022/04/21 13:38:17;;;;;;;4.90;4.20;;;;;;;;;;4990010;28;20042;-71
2022/04/21 13:40:43;;;;;;;4.82;3.85;;;;;;;;;;5005842;28;20095;-71
2022/04/21 13:43:10;;;;;;;4.55;4.15;;;;;;;;;;5003285;28;20056;-70
2022/04/21 13:45:38;;;;;;;2.88;2.78;;;;;;;;;;5005708;28;20049;-70
2022/04/21 13:48:05;;;;;;;3.22;3.03;;;;;;;;;;5005571;28;20049;-69
2022/04/21 13:50:31;;;;;;;4.35;4.03;;;;;;;;;;5005725;28;20050;-70
2022/04/21 13:52:57;;;;;;;4.45;4.15;;;;;;;;;;4990640;28;20646;-70
2022/04/21 13:55:23;;;;;;;4.50;4.10;;;;;;;;;;5001793;28;20069;-74
2022/04/21 13:57:48;;;;;;;5.20;3.72;;;;;;;;;;4996145;28;20522;-71
2022/04/21 14:00:14;;;;;;;4.10;3.60;;;;;;;;;;5008210;28;20056;-70
2022/04/21 14:02:40;;;;;;;4.38;4.07;;;;;;;;;;4989533;28;20383;-70
2022/04/21 14:05:06;;;;;;;3.33;3.15;;;;;;;;;;4992452;28;20447;-72
2022/04/21 14:07:32;;;;;;;3.85;3.45;;;;;;;;;;5009622;28;20037;-71
2022/04/21 14:09:58;;;;;;;4.05;3.65;;;;;;;;;;5010573;28;20045;-71
2022/04/21 14:12:24;;;;;;;3.42;3.22;;;;;;;;;;5010467;28;20080;-71
2022/04/21 14:14:50;;;;;;;4.95;4.65;;;;;;;;;;5009275;28;20414;-70
2022/04/21 14:17:16;;;;;;;4.55;4.25;;;;;;;;;;5009803;28;20038;-70
2022/04/21 14:19:43;;;;;;;5.13;4.63;;;;;;;;;;5010228;28;20041;-69
2022/04/21 14:22:09;;;;;;;6.45;4.10;;;;;;;;;;4991675;28;20426;-70
2022/04/21 14:24:34;;;;;;;5.10;4.68;;;;;;;;;;5009629;28;20041;-69
2022/04/21 14:27:01;;;;;;;4.45;4.10;;;;;;;;;;4990395;28;20049;-70
2022/04/21 14:29:27;;;;;;;4.05;3.00;;;;;;;;;;4991640;28;20038;-71
2022/04/21 14:31:53;;;;;;;6.97;4.53;;;;;;;;;;5010179;28;20288;-70
2022/04/21 14:34:19;;;;;;;4.80;4.35;;;;;;;;;;5010790;28;20120;-69
2022/04/21 14:36:45;;;;;;;4.50;4.15;;;;;;;;;;5009323;28;20049;-70
2022/04/21 14:44:59;;;;;;;5.10;4.78;;;;;;;;;;4949819;29;20094;-70
2022/04/21 14:47:26;;;;;;;4.57;4.28;;;;;;;;;;4943332;28;20050;-74
2022/04/21 14:49:52;;;;;;;5.25;4.95;;;;;;;;;;4969932;28;20468;-71
2022/04/21 14:52:21;;;;;;;4.45;4.10;;;;;;;;;;4988144;28;20092;-72
2022/04/21 14:54:47;;;;;;;5.05;4.60;;;;;;;;;;4992188;28;20038;-70
2022/04/21 14:57:16;;;;;;;4.60;4.20;;;;;;;;;;4995086;28;20124;-70
2022/04/21 14:59:42;;;;;;;5.75;5.22;;;;;;;;;;5010270;28;20423;-69
2022/04/21 15:02:08;;;;;;;3.95;3.55;;;;;;;;;;5010659;28;20046;-69
2022/04/21 15:04:34;;;;;;;5.28;4.35;;;;;;;;;;4996092;28;20045;-70
2022/04/21 15:07:00;;;;;;;5.20;4.55;;;;;;;;;;5010314;28;20132;-70
2022/04/21 15:09:26;;;;;;;4.32;3.50;;;;;;;;;;5007998;28;20044;-71
2022/04/21 15:11:52;;;;;;;4.97;4.53;;;;;;;;;;4991405;28;20384;-71
2022/04/21 15:14:18;;;;;;;5.57;5.05;;;;;;;;;;5009762;28;20176;-71
2022/04/21 15:16:44;;;;;;;5.55;5.05;;;;;;;;;;5006942;28;20132;-72
2022/04/21 15:19:11;;;;;;;5.45;5.05;;;;;;;;;;4976698;28;20046;-72
2022/04/21 15:21:38;;;;;;;4.82;4.38;;;;;;;;;;5009790;28;20557;-70
2022/04/21 15:24:04;;;;;;;5.10;4.60;;;;;;;;;;5010582;28;20132;-71
2022/04/21 15:26:30;;;;;;;5.45;4.95;;;;;;;;;;5010019;28;20056;-71
2022/04/21 15:28:56;;;;;;;5.28;4.88;;;;;;;;;;4991563;28;20046;-71
2022/04/21 15:31:22;;;;;;;6.82;4.78;;;;;;;;;;5010076;28;20612;-70
2022/04/21 15:33:48;;;;;;;5.00;4.60;;;;;;;;;;5010409;28;20096;-71
2022/04/21 15:36:14;;;;;;;5.43;5.00;;;;;;;;;;5009263;28;20081;-70
2022/04/21 15:38:44;;;;;;;5.55;4.95;;;;;;;;;;5009149;28;20030;-70
2022/04/21 15:41:17;;;;;;;6.97;5.00;;;;;;;;;;5007874;28;20054;-70
2022/04/21 15:43:43;;;;;;;3.95;3.72;;;;;;;;;;4991539;28;20056;-70
2022/04/21 15:46:09;;;;;;;7.07;5.05;;;;;;;;;;5005239;28;20048;-70
2022/04/21 15:48:35;;;;;;;4.70;4.40;;;;;;;;;;5009708;28;20042;-71
2022/04/21 15:51:01;;;;;;;3.80;3.50;;;;;;;;;;5009506;28;20129;-71
2022/04/21 15:58:56;;;;;;;5.90;5.38;;;;;;;;;;5016341;28;20123;-71
2022/04/21 16:01:29;;;;;;;5.93;5.53;;;;;;;;;;5012677;28;20514;-71
2022/04/21 16:03:55;;;;;;;5.32;4.88;;;;;;;;;;5017777;28;20528;-71
2022/04/21 16:06:21;;;;;;;7.40;5.50;;;;;;;;;;4979822;28;20039;-73
2022/04/21 16:08:48;;;;;;;6.30;5.78;;;;;;;;;;4996764;28;20092;-72
2022/04/21 16:11:14;;;;;;;5.32;4.93;;;;;;;;;;5008899;28;20188;-71
2022/04/21 16:13:40;;;;;;;6.18;5.70;;;;;;;;;;5008342;28;20072;-70
2022/04/21 16:16:07;;;;;;;6.45;5.22;;;;;;;;;;5008784;28;20038;-71
2022/04/21 16:18:33;;;;;;;14.05;5.40;;;;;;;;;;5008318;28;20053;-71
2022/04/21 16:20:59;;;;;;;5.70;5.20;;;;;;;;;;5008529;28;20046;-70
2022/04/21 16:23:25;;;;;;;5.57;5.15;;;;;;;;;;5008858;28;20120;-71
2022/04/21 16:25:51;;;;;;;11.88;6.05;;;;;;;;;;5008773;28;20119;-71
2022/04/21 16:28:17;;;;;;;5.82;5.32;;;;;;;;;;5009255;28;20132;-71
2022/04/21 16:30:43;;;;;;;6.47;4.93;;;;;;;;;;5007865;28;20553;-71
2022/04/21 16:33:10;;;;;;;10.13;5.15;;;;;;;;;;4997122;28;20057;-71
2022/04/21 16:35:36;;;;;;;5.50;4.93;;;;;;;;;;4998514;28;20041;-71
2022/04/21 16:38:03;;;;;;;5.50;5.00;;;;;;;;;;5000343;28;20046;-71
2022/04/21 16:40:29;;;;;;;8.27;5.47;;;;;;;;;;5008605;28;20034;-71
2022/04/21 16:42:55;;;;;;;7.78;5.97;;;;;;;;;;5006947;28;20103;-71
2022/04/21 16:45:21;;;;;;;8.35;5.57;;;;;;;;;;5004670;28;20030;-71
2022/04/21 16:47:47;;;;;;;6.53;5.90;;;;;;;;;;5008545;28;20048;-71
2022/04/21 16:50:16;;;;;;;5.53;5.13;;;;;;;;;;4991197;28;20038;-71
2022/04/21 16:52:43;;;;;;;7.63;6.25;;;;;;;;;;5008061;28;20050;-71
2022/04/21 16:55:09;;;;;;;6.05;5.55;;;;;;;;;;5008242;28;20042;-71
2022/04/21 16:57:37;;;;;;;5.70;5.20;;;;;;;;;;4974412;28;20053;-71
2022/04/21 17:00:04;;;;;;;9.10;5.65;;;;;;;;;;5009885;28;20546;-71
2022/04/21 17:05:15;;;;;;;6.10;5.70;;;;;;;;;;5007751;28;20053;-71
2022/04/21 17:07:43;;;;;;;5.45;4.93;;;;;;;;;;5007654;28;20117;-71
2022/04/21 17:10:09;;;;;;;6.30;5.82;;;;;;;;;;4990375;28;20053;-71
2022/04/21 17:12:37;;;;;;;5.80;5.35;;;;;;;;;;5000309;28;20510;-71
2022/04/21 17:15:03;;;;;;;6.43;5.82;;;;;;;;;;4991093;28;20045;-71
2022/04/21 17:17:29;;;;;;;6.60;5.78;;;;;;;;;;5005133;28;20132;-72
2022/04/21 17:19:56;;;;;;;6.25;5.82;;;;;;;;;;5006450;28;20125;-71
2022/04/21 17:22:21;;;;;;;6.63;6.03;;;;;;;;;;4990943;28;20136;-71
2022/04/21 17:24:48;;;;;;;6.60;6.00;;;;;;;;;;5008614;28;20042;-71
2022/04/21 17:27:14;;;;;;;6.70;6.20;;;;;;;;;;5008557;28;20586;-71
2022/04/21 17:29:40;;;;;;;6.57;6.00;;;;;;;;;;5008202;28;20149;-71
2022/04/21 17:32:06;;;;;;;7.18;6.40;;;;;;;;;;5007107;28;20124;-71
2022/04/21 17:34:33;;;;;;;6.75;6.20;;;;;;;;;;5007167;28;20046;-71
2022/04/21 17:36:59;;;;;;;5.72;5.22;;;;;;;;;;5008378;28;20050;-71
2022/04/21 17:39:26;;;;;;;7.68;6.22;;;;;;;;;;5009665;28;20498;-71
2022/04/21 17:41:54;;;;;;;5.38;4.97;;;;;;;;;;5012095;28;20581;-71
2022/04/21 17:44:20;;;;;;;3.65;3.38;;;;;;;;;;5010569;28;20132;-72
2022/04/21 17:46:46;;;;;;;6.95;6.32;;;;;;;;;;5011417;28;20582;-72
2022/04/21 17:49:12;;;;;;;6.78;6.18;;;;;;;;;;4978069;28;20046;-72
2022/04/21 17:51:38;;;;;;;6.05;5.60;;;;;;;;;;5011718;28;20050;-72
2022/04/21 17:54:04;;;;;;;6.70;6.10;;;;;;;;;;5011178;28;20453;-72
2022/04/21 17:56:30;;;;;;;6.32;5.93;;;;;;;;;;5008334;28;20526;-71
2022/04/21 17:58:56;;;;;;;7.80;7.00;;;;;;;;;;4998286;28;20552;-69
2022/04/21 18:01:22;;;;;;;8.07;6.38;;;;;;;;;;5011669;28;20041;-70
2022/04/21 18:03:49;;;;;;;7.65;7.00;;;;;;;;;;5011335;28;20149;-69
2022/04/21 18:06:14;;;;;;;7.82;7.05;;;;;;;;;;5011345;28;20041;-69
2022/04/21 18:08:40;;;;;;;5.88;5.32;;;;;;;;;;4996990;28;20048;-69
2022/04/21 18:11:07;;;;;;;7.45;6.60;;;;;;;;;;5011784;28;20589;-69
2022/04/21 18:13:34;;;;;;;7.97;6.30;;;;;;;;;;5011785;28;20115;-70
2022/04/21 18:16:00;;;;;;;7.90;7.28;;;;;;;;;;5011649;28;20069;-69
2022/04/21 18:18:26;;;;;;;8.25;7.53;;;;;;;;;;4993251;28;20136;-70
2022/04/21 18:20:52;;;;;;;8.07;7.38;;;;;;;;;;5010236;28;20502;-69
2022/04/21 18:23:18;;;;;;;9.25;7.55;;;;;;;;;;5010129;28;20148;-69
2022/04/21 18:25:44;;;;;;;8.77;6.53;;;;;;;;;;5011444;28;20050;-69
2022/04/21 18:28:10;;;;;;;11.02;7.85;;;;;;;;;;5011799;28;20038;-69
2022/04/21 18:30:39;;;;;;;7.28;6.55;;;;;;;;;;5011253;28;20542;-69
2022/04/21 18:33:05;;;;;;;8.25;7.43;;;;;;;;;;5009894;28;20526;-68
2022/04/21 18:35:31;;;;;;;7.72;6.70;;;;;;;;;;5008368;28;20542;-69
2022/04/21 18:37:57;;;;;;;6.00;3.88;;;;;;;;;;5010565;28;20108;-69
2022/04/21 18:40:23;;;;;;;8.68;7.15;;;;;;;;;;5009822;28;20045;-68
2022/04/21 18:42:49;;;;;;;13.77;8.13;;;;;;;;;;5008585;28;20045;-69
2022/04/21 18:45:15;;;;;;;9.27;8.43;;;;;;;;;;5009920;28;20042;-69
2022/04/21 18:47:42;;;;;;;10.63;7.55;;;;;;;;;;5009793;28;20453;-68
2022/04/21 18:50:09;;;;;;;4.32;4.03;;;;;;;;;;5009305;28;20046;-69
2022/04/21 18:52:34;;;;;;;7.30;5.40;;;;;;;;;;5008639;28;20042;-69
2022/04/21 18:55:01;;;;;;;7.57;6.97;;;;;;;;;;4992481;28;20041;-69
2022/04/21 18:58:23;;;;;;;6.53;5.93;;;;;;;;;;5007848;28;20112;-68
2022/04/21 19:00:18;;;;;;;8.63;7.93;;;;;;;;;;5011462;28;20049;-68
2022/04/21 19:02:44;;;;;;;8.32;7.57;;;;;;;;;;5022625;28;20065;-71
2022/04/21 19:05:14;;;;;;;7.20;6.70;;;;;;;;;;4992202;28;20037;-70
2022/04/21 19:07:41;;;;;;;10.50;8.18;;;;;;;;;;5008468;28;20091;-70
2022/04/21 19:10:07;;;;;;;9.57;8.68;;;;;;;;;;5008398;28;20046;-70
2022/04/21 19:12:33;;;;;;;6.90;6.22;;;;;;;;;;4991516;28;20037;-71
2022/04/21 19:14:59;;;;;;;10.85;8.57;;;;;;;;;;5007172;28;20514;-71
2022/04/21 19:17:25;;;;;;;9.98;7.43;;;;;;;;;;5011232;28;20048;-72
2022/04/21 19:19:51;;;;;;;9.20;8.30;;;;;;;;;;5010338;28;20042;-72
2022/04/21 19:22:17;;;;;;;8.90;8.10;;;;;;;;;;5011075;28;20049;-73
2022/04/21 19:24:43;;;;;;;8.48;7.57;;;;;;;;;;4994637;28;20053;-72
2022/04/21 19:27:11;;;;;;;9.15;8.25;;;;;;;;;;5012956;28;20030;-72
2022/04/21 19:29:48;;;;;;;8.25;7.50;;;;;;;;;;5011645;28;20556;-70
2022/04/21 19:32:15;;;;;;;5.25;4.68;;;;;;;;;;5008925;28;20042;-71
2022/04/21 19:34:42;;;;;;;6.55;6.05;;;;;;;;;;4976346;28;20605;-72
2022/04/21 19:37:08;;;;;;;8.85;8.00;;;;;;;;;;5010095;28;20048;-71
2022/04/21 19:39:37;;;;;;;7.80;7.00;;;;;;;;;;5009842;28;20045;-71
2022/04/21 19:42:06;;;;;;;6.72;6.13;;;;;;;;;;5010573;28;20085;-71
2022/04/21 19:44:32;;;;;;;10.50;8.80;;;;;;;;;;5009563;28;20054;-70
2022/04/21 19:46:59;;;;;;;13.35;11.10;;;;;;;;;;5009942;28;20073;-70
2022/04/21 19:49:24;;;;;;;9.10;8.13;;;;;;;;;;5009017;28;20486;-72
2022/04/21 19:51:50;;;;;;;5.50;5.07;;;;;;;;;;4992367;28;20121;-72
2022/04/21 19:54:16;;;;;;;9.43;8.63;;;;;;;;;;5010130;28;20049;-73
2022/04/21 19:56:48;;;;;;;8.32;7.72;;;;;;;;;;5009720;28;20042;-71
2022/04/21 19:59:17;;;;;;;8.18;7.28;;;;;;;;;;5005403;28;20053;-71
2022/04/21 20:01:43;;;;;;;9.40;8.55;;;;;;;;;;5008866;28;20030;-72
2022/04/21 20:04:09;;;;;;;7.75;7.00;;;;;;;;;;4992602;28;20477;-73
2022/04/21 20:09:20;;;;;;;10.10;9.02;;;;;;;;;;5009368;28;20133;-71
2022/04/21 20:11:47;;;;;;;9.05;8.02;;;;;;;;;;5007108;28;20121;-71
2022/04/21 20:14:13;;;;;;;9.32;8.52;;;;;;;;;;5008130;28;20132;-71
2022/04/21 20:16:39;;;;;;;10.45;9.45;;;;;;;;;;4987482;28;20796;-70
2022/04/21 20:27:20;;;;;;;10.18;7.70;;;;;;;;;;5004471;28;20032;-71
2022/04/21 20:29:46;;;;;;;9.43;6.35;;;;;;;;;;5008509;28;20453;-70
2022/04/21 20:32:12;;;;;;;8.00;7.35;;;;;;;;;;5008861;28;20069;-70
2022/04/21 20:34:39;;;;;;;8.45;7.60;;;;;;;;;;5008140;28;20052;-70
2022/04/21 20:37:07;;;;;;;3.63;3.38;;;;;;;;;;5009041;28;20053;-70
2022/04/21 20:39:33;;;;;;;6.05;5.57;;;;;;;;;;5007807;28;20111;-70
2022/04/21 20:41:59;;;;;;;9.20;6.78;;;;;;;;;;5007891;28;20549;-70
2022/04/21 20:44:25;;;;;;;7.53;6.80;;;;;;;;;;5008934;28;20038;-70
2022/04/21 20:46:51;;;;;;;6.70;6.18;;;;;;;;;;4989796;28;20030;-70
2022/04/21 20:49:16;;;;;;;8.15;7.60;;;;;;;;;;5009075;28;20048;-70
2022/04/21 20:51:43;;;;;;;9.05;8.15;;;;;;;;;;4991412;28;20034;-70
2022/04/21 20:54:09;;;;;;;9.10;8.20;;;;;;;;;;5006808;28;20424;-71
2022/04/21 20:56:35;;;;;;;9.30;8.60;;;;;;;;;;4990061;28;20034;-71
2022/04/21 20:59:02;;;;;;;9.63;8.93;;;;;;;;;;5009525;28;20308;-70
2022/04/21 21:01:28;;;;;;;7.07;6.43;;;;;;;;;;5007241;28;20030;-76
2022/04/21 21:03:54;;;;;;;8.50;7.53;;;;;;;;;;4991669;28;20052;-75
2022/04/21 21:09:05;;;;;;;8.13;7.32;;;;;;;;;;4991248;28;20392;-75
2022/04/21 21:11:30;;;;;;;8.07;7.32;;;;;;;;;;4991796;28;20048;-76
2022/04/21 21:13:56;;;;;;;8.77;7.82;;;;;;;;;;5009671;28;20188;-75
2022/04/21 21:16:22;;;;;;;7.75;7.03;;;;;;;;;;4996073;28;20489;-77
2022/04/21 21:18:49;;;;;;;8.43;7.75;;;;;;;;;;4995718;28;20067;-76
2022/04/21 21:21:15;;;;;;;7.93;7.30;;;;;;;;;;5013600;28;20037;-75
2022/04/21 21:23:41;;;;;;;8.40;7.70;;;;;;;;;;5003536;28;20058;-75
2022/04/21 21:26:08;;;;;;;9.15;8.25;;;;;;;;;;5011792;28;20044;-75
2022/04/21 21:28:34;;;;;;;8.43;7.50;;;;;;;;;;5013153;28;20042;-75
2022/04/21 21:31:00;;;;;;;7.88;7.28;;;;;;;;;;5013567;28;20529;-75
2022/04/21 21:33:26;;;;;;;9.68;8.88;;;;;;;;;;5013562;28;20520;-75
2022/04/21 21:35:52;;;;;;;9.65;8.85;;;;;;;;;;5013507;28;20121;-76
2022/04/21 21:38:18;;;;;;;10.18;9.38;;;;;;;;;;4995488;28;20141;-76
2022/04/21 21:40:44;;;;;;;9.77;8.88;;;;;;;;;;5013144;28;20033;-75
2022/04/21 21:43:10;;;;;;;9.90;9.00;;;;;;;;;;4995649;28;20058;-75
2022/04/21 21:45:36;;;;;;;10.77;9.52;;;;;;;;;;4995467;28;20108;-74
2022/04/21 21:48:02;;;;;;;11.05;8.73;;;;;;;;;;5013296;28;20053;-76
2022/04/21 21:53:13;;;;;;;9.45;8.65;;;;;;;;;;4993567;28;20061;-75
2022/04/21 21:55:39;;;;;;;8.88;8.18;;;;;;;;;;4997655;28;20037;-75
2022/04/21 21:58:06;;;;;;;9.23;8.45;;;;;;;;;;4995560;28;20068;-76